Airfield :
LOGIN :

Register | Disclaimer

   EN    FR    IT 

 










Legend :    VFR   Marginal VFR   IFR   Intensive IFR   Very Intensive IFR
Visi :
Ceiling :
>= 8 km
>= 3000ft
5 to 8 km
1000 to 3000 ft
1500m to 5 km
500 to 1000 ft
800 to 1500m
200 to 500 ft
< 800m
< 200 ft
Symbols :   Thunderstorms  Fog  Heavy snow  Heavy precipitations  Wind > 20 kt
SIGMETs :     Misc.  Thunderstorms  Icing  Turbulence  Mountain Waves  Volcanic Ashes







- Airport Elevation : 587 ft
- IATA code : XCR
- Download approach charts


LFOK - Chalons Vatry

CURRENT METAR :
  • 171700Z AUTO 23011KT 9999 FEW042 BKN048 BKN060 23/18 Q1017 TEMPO 4000 SHRA BKN020TCU

EXPIRED METARs :
  • 171630Z AUTO 23011KT 9999 FEW049 OVC190 23/18 Q1017 TEMPO 4000 SHRA BKN020TCU
  • 171600Z AUTO 22013KT 9999 FEW030 SCT047 BKN060 24/18 Q1017 TEMPO 4000 SHRA BKN020TCU
  • 171530Z AUTO 23013KT 9999 FEW026 BKN035 OVC042 23/18 Q1018 TEMPO 4000 SHRA BKN020TCU
  • 171500Z AUTO 21012KT 9999 BKN031 BKN037 BKN043 22/18 Q1018 TEMPO 4000 SHRA BKN020TCU
  • 171430Z AUTO 21015KT 9999 FEW031 SCT056 BKN070 23/18 Q1018 TEMPO 4000 SHRA BKN020TCU

TAF TAF LFOK
Valid from the 17 at 12:00 until the 18 at 12:00 UTC


171100Z 1712/1812 21014KT 9999 BKN030
TEMPO 1714/1802 4000 SHRA BKN020TCU
TEMPO 1804/1812 3000 RA BKN008 BKN015TCU
PROB40
TEMPO 1808/1811 30015G25KT TSRA BKN005 BKN020CB
No reported NOTAMs for that airfield.



MET'MAP, your aeronautical weather chart ! - Copyright ORBIFLY December 2007 - Disclaimer

ORBIFLY MET'MAP TEAM :

Programming & Development : Alexandra Zaïnal
Concept & Development : Baudouin d'Aumeries
Co-Development & Prog : Marc-Olivier Méhu
Technical & hardware support : Manuel Goepfert

Contact : metmap@orbifly.com




SOURCES & CREDITS :

   NOAA